createdAt,value
2019-03-28T00:01:47.626Z,77.90
2019-03-28T00:04:17.158Z,77.90
2019-03-28T00:06:46.312Z,78.50
2019-03-28T00:09:15.285Z,78.90
2019-03-28T00:11:44.240Z,78.80
2019-03-28T00:14:13.537Z,79.00
2019-03-28T00:16:42.671Z,80.50
2019-03-28T00:19:25.062Z,81.70
2019-03-28T00:21:54.091Z,82.90
2019-03-28T00:24:24.691Z,83.50
2019-03-28T00:26:53.723Z,83.30
2019-03-28T00:29:22.690Z,83.50
2019-03-28T00:31:51.628Z,83.90
2019-03-28T00:34:20.601Z,83.80
2019-03-28T00:36:49.630Z,84.20
2019-03-28T00:39:18.612Z,85.10
2019-03-28T00:41:47.612Z,85.20
2019-03-28T00:44:16.750Z,84.70
2019-03-28T00:46:46.176Z,84.60
2019-03-28T00:49:15.316Z,85.20
2019-03-28T00:51:44.744Z,85.00
2019-03-28T00:54:13.777Z,85.50
2019-03-28T00:56:46.935Z,85.30
2019-03-28T00:59:13.562Z,85.50
2019-03-28T01:01:42.790Z,85.60
2019-03-28T01:04:11.910Z,85.80
2019-03-28T01:06:40.913Z,85.70
2019-03-28T01:09:10.124Z,86.40
2019-03-28T01:11:39.131Z,86.50
2019-03-28T01:14:08.314Z,86.20
2019-03-28T01:16:37.586Z,85.20
2019-03-28T01:19:06.517Z,84.90
2019-03-28T01:21:35.535Z,84.90
2019-03-28T01:24:04.562Z,85.00
2019-03-28T01:26:33.605Z,85.10
2019-03-28T01:29:02.726Z,85.10
2019-03-28T01:31:31.690Z,85.00
2019-03-28T01:34:00.808Z,84.30
2019-03-28T01:36:29.793Z,84.70
2019-03-28T01:38:58.777Z,85.10
2019-03-28T01:41:27.753Z,85.10
2019-03-28T01:43:56.699Z,85.20
2019-03-28T01:46:25.678Z,85.70
2019-03-28T01:48:54.649Z,85.70
2019-03-28T01:51:23.717Z,86.70
2019-03-28T01:53:52.722Z,86.40
2019-03-28T01:56:21.688Z,86.60
2019-03-28T01:58:50.643Z,88.20
2019-03-28T02:01:19.675Z,87.40
2019-03-28T02:03:48.873Z,87.20
2019-03-28T02:06:17.841Z,86.90
2019-03-28T02:08:46.958Z,87.10
2019-03-28T02:11:16.189Z,87.60
2019-03-28T02:13:45.496Z,87.60
2019-03-28T02:16:14.537Z,88.70
2019-03-28T02:18:43.512Z,88.50
2019-03-28T02:21:12.501Z,88.10
2019-03-28T02:23:41.471Z,87.80
2019-03-28T02:26:10.408Z,87.80
2019-03-28T02:28:39.458Z,88.20
2019-03-28T02:31:08.428Z,88.20
2019-03-28T02:33:47.768Z,88.70
2019-03-28T02:36:16.782Z,88.70
2019-03-28T02:38:45.812Z,88.70
2019-03-28T02:41:14.940Z,88.10
2019-03-28T02:43:43.985Z,88.20
2019-03-28T02:46:13.090Z,88.40
2019-03-28T02:48:42.061Z,88.40
2019-03-28T02:51:11.019Z,89.10
2019-03-28T02:53:40.166Z,88.90
2019-03-28T02:56:09.376Z,88.90
2019-03-28T02:58:38.610Z,89.90
2019-03-28T03:01:07.969Z,89.70
2019-03-28T03:03:37.003Z,89.80
2019-03-28T03:06:05.953Z,90.10
2019-03-28T03:08:35.145Z,90.00
2019-03-28T03:11:04.159Z,90.00
2019-03-28T03:13:33.124Z,90.10
2019-03-28T03:16:02.057Z,90.20
2019-03-28T03:18:31.132Z,90.10
2019-03-28T03:21:00.072Z,90.00
2019-03-28T03:23:29.020Z,89.80
2019-03-28T03:25:58.120Z,89.50
2019-03-28T03:28:27.150Z,90.00
2019-03-28T03:30:56.141Z,90.20
2019-03-28T03:33:25.179Z,90.10
2019-03-28T03:35:54.253Z,90.20
2019-03-28T03:38:23.322Z,89.80
2019-03-28T03:40:52.570Z,90.00
2019-03-28T03:43:23.057Z,90.10
2019-03-28T03:45:52.442Z,90.00
2019-03-28T03:48:21.498Z,89.90
2019-03-28T03:50:50.481Z,90.00
2019-03-28T03:53:19.451Z,90.10
2019-03-28T03:55:48.422Z,90.00
2019-03-28T03:58:18.648Z,90.00
2019-03-28T04:00:48.198Z,90.00
2019-03-28T04:03:17.403Z,90.20
2019-03-28T04:05:46.627Z,90.50
2019-03-28T04:08:15.571Z,90.60
2019-03-28T04:10:44.614Z,90.50
2019-03-28T04:13:13.643Z,90.70
2019-03-28T04:15:42.709Z,90.80
2019-03-28T04:18:11.734Z,90.70
2019-03-28T04:20:40.963Z,90.60
2019-03-28T04:23:10.212Z,90.50
2019-03-28T04:25:39.824Z,90.70
2019-03-28T04:28:09.407Z,90.10
2019-03-28T04:30:38.392Z,90.10
2019-03-28T04:33:07.362Z,90.10
2019-03-28T04:35:36.403Z,90.30
2019-03-28T04:38:05.461Z,90.40
2019-03-28T04:40:34.528Z,90.50
2019-03-28T04:43:04.021Z,91.10
2019-03-28T04:45:32.985Z,91.20
2019-03-28T04:48:02.044Z,91.60
2019-03-28T04:50:31.257Z,91.60
2019-03-28T04:53:00.305Z,91.70
2019-03-28T04:55:29.252Z,91.40
2019-03-28T04:57:58.387Z,91.50
2019-03-28T05:00:27.461Z,91.80
2019-03-28T05:02:57.541Z,91.70
2019-03-28T05:05:26.959Z,91.70
2019-03-28T05:07:56.095Z,91.60
2019-03-28T05:10:25.279Z,91.70
2019-03-28T05:12:54.240Z,91.60
2019-03-28T05:15:23.542Z,91.70
2019-03-28T05:17:52.588Z,91.50
2019-03-28T05:20:21.570Z,91.40
2019-03-28T05:22:50.652Z,91.20
2019-03-28T05:25:19.776Z,91.00
2019-03-28T05:27:49.141Z,90.90
2019-03-28T05:30:18.322Z,90.90
2019-03-28T05:32:47.425Z,90.70
2019-03-28T05:35:16.761Z,90.70
2019-03-28T05:37:45.793Z,90.60
2019-03-28T05:40:14.895Z,90.40
2019-03-28T05:42:43.905Z,90.30
2019-03-28T05:45:13.259Z,90.10
2019-03-28T05:47:42.210Z,90.20
2019-03-28T05:50:11.312Z,90.00
2019-03-28T05:52:40.308Z,90.00
2019-03-28T05:55:09.609Z,90.00
2019-03-28T05:57:38.586Z,89.80
2019-03-28T06:00:08.264Z,90.20
2019-03-28T06:02:37.203Z,89.50
2019-03-28T06:05:07.592Z,89.20
2019-03-28T06:07:36.666Z,88.90
2019-03-28T06:10:09.307Z,88.70
2019-03-28T06:12:38.808Z,88.50
2019-03-28T06:15:08.854Z,88.50
2019-03-28T06:17:37.795Z,88.10
2019-03-28T06:20:08.198Z,87.70
2019-03-28T06:22:37.315Z,87.10
2019-03-28T06:25:06.753Z,87.10
2019-03-28T06:27:35.693Z,86.90
2019-03-28T06:30:07.108Z,86.60
2019-03-28T06:32:42.731Z,85.80
2019-03-28T06:35:06.819Z,85.50
2019-03-28T06:37:36.054Z,85.50
2019-03-28T06:40:06.056Z,85.10
2019-03-28T06:42:35.135Z,85.00
2019-03-28T06:45:06.239Z,84.70
2019-03-28T06:47:35.527Z,84.40
2019-03-28T06:50:06.979Z,84.30
2019-03-28T06:52:35.912Z,84.40
2019-03-28T06:55:05.937Z,84.40
2019-03-28T06:57:34.880Z,84.40
2019-03-28T07:00:09.202Z,84.10
2019-03-28T07:02:38.264Z,83.00
2019-03-28T07:05:07.770Z,82.30
2019-03-28T07:07:36.807Z,82.00
2019-03-28T07:10:07.194Z,81.40
2019-03-28T07:12:36.171Z,80.80
2019-03-28T07:15:07.064Z,80.50
2019-03-28T07:17:36.101Z,79.80
2019-03-28T07:20:08.850Z,78.50
2019-03-28T07:22:36.657Z,76.60
2019-03-28T07:25:07.715Z,76.60
2019-03-28T07:27:36.838Z,76.30
2019-03-28T07:30:08.082Z,75.50
2019-03-28T07:32:37.182Z,75.10
2019-03-28T07:35:07.265Z,78.50
2019-03-28T07:37:36.244Z,74.60
2019-03-28T07:40:08.544Z,73.00
2019-03-28T07:42:37.877Z,71.90
2019-03-28T07:45:08.466Z,71.40
2019-03-28T07:47:37.512Z,71.70
2019-03-28T07:50:10.349Z,69.80
2019-03-28T07:56:12.293Z,67.80
2019-03-28T07:58:44.120Z,67.90
2019-03-28T08:01:12.050Z,66.30
2019-03-28T08:03:41.118Z,65.70
2019-03-28T08:06:12.770Z,65.80
2019-03-28T08:08:44.073Z,65.90
2019-03-28T08:11:11.815Z,65.90
2019-03-28T08:13:41.033Z,64.80
2019-03-28T08:16:10.071Z,64.20
2019-03-28T08:18:39.114Z,63.20
2019-03-28T08:21:08.078Z,63.70
2019-03-28T08:23:37.054Z,61.50
2019-03-28T08:26:06.012Z,61.70
2019-03-28T08:28:35.060Z,61.70
2019-03-28T08:31:04.158Z,60.50
2019-03-28T08:33:34.398Z,60.40
2019-03-28T08:36:03.558Z,59.40
2019-03-28T08:38:35.771Z,57.40
2019-03-28T08:41:07.118Z,56.70
2019-03-28T08:43:36.092Z,55.10
2019-03-28T08:46:08.650Z,54.70
2019-03-28T08:48:36.079Z,54.10
2019-03-28T08:51:05.295Z,53.90
2019-03-28T08:53:34.252Z,53.40
2019-03-28T08:56:03.347Z,52.80
2019-03-28T08:58:32.383Z,52.90
2019-03-28T09:01:01.601Z,52.00
2019-03-28T09:03:31.044Z,52.60
2019-03-28T09:06:00.026Z,52.30
2019-03-28T09:08:29.208Z,53.00
2019-03-28T09:10:58.258Z,54.50
2019-03-28T09:13:27.264Z,55.90
2019-03-28T09:15:56.318Z,57.00
2019-03-28T09:18:25.426Z,57.90
2019-03-28T09:20:54.464Z,58.00
2019-03-28T09:23:23.413Z,57.50
2019-03-28T09:25:52.456Z,57.30
2019-03-28T09:28:21.578Z,56.30
2019-03-28T09:30:50.653Z,56.00
2019-03-28T09:33:19.668Z,55.00
2019-03-28T09:35:48.643Z,54.70
2019-03-28T09:38:17.753Z,54.50
2019-03-28T09:40:48.308Z,53.30
2019-03-28T09:43:17.466Z,53.90
2019-03-28T09:45:46.520Z,53.50
2019-03-28T09:48:15.698Z,53.60
2019-03-28T09:50:44.736Z,52.30
2019-03-28T09:53:13.813Z,53.30
2019-03-28T09:55:42.968Z,53.40
2019-03-28T09:58:11.915Z,52.00
2019-03-28T10:00:41.137Z,49.10
2019-03-28T10:03:10.192Z,46.80
2019-03-28T10:05:39.135Z,48.10
2019-03-28T10:08:08.223Z,47.50
2019-03-28T10:10:37.313Z,45.50
2019-03-28T10:13:06.273Z,46.20
2019-03-28T10:15:37.100Z,46.10
2019-03-28T10:18:07.159Z,48.60
2019-03-28T10:20:36.161Z,47.00
2019-03-28T10:23:05.370Z,46.40
2019-03-28T10:25:34.483Z,47.80
2019-03-28T10:28:03.510Z,48.20
2019-03-28T10:30:37.912Z,46.50
2019-03-28T10:33:07.715Z,45.50
2019-03-28T10:35:36.918Z,45.10
2019-03-28T10:38:06.130Z,44.50
2019-03-28T10:40:36.361Z,45.40
2019-03-28T10:43:05.742Z,44.70
2019-03-28T10:45:34.836Z,44.20
2019-03-28T10:48:03.873Z,43.40
2019-03-28T10:50:40.813Z,43.00
2019-03-28T10:53:04.041Z,43.30
2019-03-28T10:55:33.108Z,43.30
2019-03-28T10:58:02.236Z,42.60
2019-03-28T11:00:32.253Z,43.40
2019-03-28T11:03:01.469Z,43.10
2019-03-28T11:05:30.587Z,43.10
2019-03-28T11:07:59.835Z,42.70
2019-03-28T11:10:30.592Z,42.70
2019-03-28T11:12:59.796Z,42.50
2019-03-28T11:15:28.913Z,42.40
2019-03-28T11:17:57.937Z,42.20
2019-03-28T11:20:26.920Z,41.70
2019-03-28T11:22:55.960Z,41.90
2019-03-28T11:25:25.022Z,41.90
2019-03-28T11:27:54.055Z,41.40
2019-03-28T11:30:23.246Z,41.40
2019-03-28T11:32:52.426Z,41.30
2019-03-28T11:35:21.573Z,41.60
2019-03-28T11:37:50.736Z,41.30
2019-03-28T11:40:20.072Z,41.80
2019-03-28T11:42:51.858Z,42.20
2019-03-28T11:45:19.925Z,42.30
2019-03-28T11:47:48.873Z,42.10
2019-03-28T11:50:18.000Z,42.20
2019-03-28T11:52:47.082Z,41.50
2019-03-28T11:55:16.134Z,41.30
2019-03-28T11:57:45.198Z,41.10
2019-03-28T12:00:16.664Z,41.90
2019-03-28T12:02:45.981Z,41.20
2019-03-28T12:05:15.304Z,40.90
2019-03-28T12:07:44.463Z,40.60
2019-03-28T12:10:14.083Z,41.00
2019-03-28T12:12:43.096Z,40.80
2019-03-28T12:15:13.219Z,40.30
2019-03-28T12:17:42.249Z,40.00
2019-03-28T12:20:12.153Z,40.40
2019-03-28T12:22:41.600Z,40.10
2019-03-28T12:25:10.923Z,40.30
2019-03-28T12:27:40.146Z,40.20
2019-03-28T12:30:11.825Z,40.00
2019-03-28T12:32:41.106Z,40.00
2019-03-28T12:35:10.331Z,40.30
2019-03-28T12:37:39.646Z,40.80
2019-03-28T12:40:09.840Z,40.70
2019-03-28T12:42:39.156Z,41.20
2019-03-28T12:45:27.659Z,41.20
2019-03-28T12:47:56.607Z,41.10
2019-03-28T12:50:25.723Z,40.60
2019-03-28T12:52:54.765Z,41.00
2019-03-28T12:55:26.945Z,41.00
2019-03-28T12:57:56.786Z,40.70
2019-03-28T13:00:36.202Z,40.20
2019-03-28T13:03:05.605Z,39.60
2019-03-28T13:05:35.010Z,39.80
2019-03-28T13:08:04.893Z,39.50
2019-03-28T13:10:33.918Z,40.30
2019-03-28T13:13:03.822Z,40.60
2019-03-28T13:15:33.275Z,40.10
2019-03-28T13:18:02.254Z,39.80
2019-03-28T13:20:31.380Z,40.40
2019-03-28T13:23:00.624Z,40.30
2019-03-28T13:25:29.789Z,40.10
2019-03-28T13:27:58.767Z,40.20
2019-03-28T13:30:27.886Z,39.90
2019-03-28T13:32:57.045Z,39.70
2019-03-28T13:35:26.160Z,39.20
2019-03-28T13:37:55.153Z,39.60
2019-03-28T13:40:24.103Z,39.20
2019-03-28T13:42:53.239Z,39.50
2019-03-28T13:45:22.660Z,39.50
2019-03-28T13:47:54.272Z,39.00
2019-03-28T13:50:22.619Z,38.80
2019-03-28T13:52:58.970Z,39.20
2019-03-28T13:55:28.053Z,38.90
2019-03-28T13:57:57.113Z,38.70
2019-03-28T14:00:35.572Z,38.70
2019-03-28T14:03:04.882Z,38.90
2019-03-28T14:05:33.940Z,39.00
2019-03-28T14:08:03.222Z,38.70
2019-03-28T14:10:32.245Z,38.80
2019-03-28T14:13:01.214Z,39.10
2019-03-28T14:15:30.246Z,39.80
2019-03-28T14:17:59.500Z,39.20
2019-03-28T14:20:28.547Z,39.30
2019-03-28T14:22:57.573Z,39.20
2019-03-28T14:25:26.583Z,39.10
2019-03-28T14:27:55.573Z,39.20
2019-03-28T14:30:24.692Z,38.80
2019-03-28T14:32:54.025Z,39.30
2019-03-28T14:35:23.211Z,38.80
2019-03-28T14:37:52.156Z,39.10
2019-03-28T14:40:21.217Z,39.30
2019-03-28T14:42:50.193Z,40.00
2019-03-28T14:45:19.979Z,39.40
2019-03-28T14:47:49.001Z,39.80
2019-03-28T14:50:21.095Z,40.00
2019-03-28T14:52:50.115Z,39.70
2019-03-28T14:55:19.343Z,39.80
2019-03-28T14:57:49.032Z,40.20
2019-03-28T15:00:37.460Z,40.20
2019-03-28T15:03:06.414Z,39.90
2019-03-28T15:05:35.419Z,40.10
2019-03-28T15:08:04.501Z,40.20
2019-03-28T15:10:33.801Z,40.70
2019-03-28T15:13:02.735Z,41.20
2019-03-28T15:15:31.763Z,41.70
2019-03-28T15:18:00.746Z,42.10
2019-03-28T15:20:29.960Z,42.00
2019-03-28T15:22:58.924Z,42.30
2019-03-28T15:25:28.142Z,42.00
2019-03-28T15:27:57.313Z,42.10
2019-03-28T15:30:26.425Z,42.10
2019-03-28T15:32:55.683Z,42.20
2019-03-28T15:35:24.916Z,42.10
2019-03-28T15:37:54.064Z,42.10
2019-03-28T15:40:23.241Z,42.10
2019-03-28T15:42:52.226Z,42.30
2019-03-28T15:45:21.357Z,42.60
2019-03-28T15:47:52.020Z,42.70
2019-03-28T15:50:21.138Z,43.10
2019-03-28T15:52:50.170Z,43.30
2019-03-28T15:55:19.288Z,43.60
2019-03-28T15:57:48.569Z,43.40
2019-03-28T16:00:17.799Z,43.60
2019-03-28T16:02:47.046Z,43.70
2019-03-28T16:05:16.144Z,43.60
2019-03-28T16:07:45.414Z,43.80
2019-03-28T16:10:15.265Z,43.90
2019-03-28T16:12:44.342Z,44.10
2019-03-28T16:15:14.416Z,44.00
2019-03-28T16:17:43.624Z,44.10
2019-03-28T16:20:13.019Z,44.00
2019-03-28T16:22:42.078Z,44.00
2019-03-28T16:25:11.599Z,44.00
2019-03-28T16:27:40.687Z,44.00
2019-03-28T16:30:11.735Z,44.00
2019-03-28T16:32:40.852Z,44.40
2019-03-28T16:35:10.498Z,44.20
2019-03-28T16:37:39.438Z,44.20
2019-03-28T16:40:08.858Z,44.40
2019-03-28T16:42:37.896Z,44.10
2019-03-28T16:45:09.212Z,44.50
2019-03-28T16:47:38.190Z,44.70
2019-03-28T16:50:07.852Z,45.00
2019-03-28T16:52:37.261Z,45.40
2019-03-28T16:55:07.442Z,45.50
2019-03-28T16:57:36.372Z,45.90
2019-03-28T17:00:14.341Z,46.00
2019-03-28T17:02:43.611Z,45.90
2019-03-28T17:05:13.154Z,46.10
2019-03-28T17:07:44.553Z,46.50
2019-03-28T17:10:19.407Z,46.70
2019-03-28T17:12:48.375Z,47.20
2019-03-28T17:15:17.750Z,47.40
2019-03-28T17:17:47.021Z,47.50
2019-03-28T17:20:16.085Z,47.80
2019-03-28T17:22:45.092Z,47.80
2019-03-28T17:25:14.141Z,48.00
2019-03-28T17:27:46.397Z,47.90
2019-03-28T17:30:14.194Z,48.00
2019-03-28T17:32:43.337Z,48.30
2019-03-28T17:35:12.981Z,48.40
2019-03-28T17:37:42.378Z,48.70
2019-03-28T17:40:11.531Z,48.90
2019-03-28T17:42:40.530Z,49.20
2019-03-28T17:45:09.766Z,49.40
2019-03-28T17:47:38.885Z,50.30
2019-03-28T17:50:08.200Z,50.30
2019-03-28T17:52:37.409Z,50.80
2019-03-28T17:55:07.579Z,51.00
2019-03-28T17:57:36.694Z,51.30
2019-03-28T18:00:09.921Z,51.60
2019-03-28T18:02:38.920Z,52.10
2019-03-28T18:05:11.539Z,52.20
2019-03-28T18:07:40.188Z,52.50
2019-03-28T18:10:09.752Z,52.60
2019-03-28T18:12:39.646Z,52.90
2019-03-28T18:15:09.444Z,52.70
2019-03-28T18:17:38.503Z,53.10
2019-03-28T18:20:08.105Z,53.40
2019-03-28T18:22:37.498Z,53.50
2019-03-28T18:25:07.895Z,53.50
2019-03-28T18:27:37.057Z,53.70
2019-03-28T18:30:07.353Z,54.00
2019-03-28T18:32:39.240Z,54.50
2019-03-28T18:35:08.220Z,54.80
2019-03-28T18:37:37.678Z,55.00
2019-03-28T18:40:08.096Z,55.30
2019-03-28T18:42:37.201Z,55.40
2019-03-28T18:45:07.913Z,55.50
2019-03-28T18:47:37.475Z,55.80
2019-03-28T18:50:07.665Z,56.00
2019-03-28T18:52:36.806Z,56.50
2019-03-28T18:55:07.048Z,56.60
2019-03-28T18:57:36.161Z,56.70
2019-03-28T19:00:08.912Z,57.10
2019-03-28T19:02:38.072Z,56.90
2019-03-28T19:05:19.031Z,57.40
2019-03-28T19:07:38.174Z,57.50
2019-03-28T19:10:07.831Z,57.20
2019-03-28T19:12:36.926Z,57.60
2019-03-28T19:15:07.849Z,57.90
2019-03-28T19:17:37.179Z,57.90
2019-03-28T19:20:07.990Z,58.10
2019-03-28T19:22:38.636Z,58.30
2019-03-28T19:25:09.477Z,59.00
2019-03-28T19:27:39.035Z,59.00
2019-03-28T19:30:09.350Z,58.80
2019-03-28T19:32:38.455Z,59.00
2019-03-28T19:35:09.334Z,59.20
2019-03-28T19:37:38.905Z,59.40
2019-03-28T19:40:09.934Z,59.80
2019-03-28T19:42:39.529Z,60.30
2019-03-28T19:45:09.056Z,60.30
2019-03-28T19:47:38.005Z,60.60
2019-03-28T19:50:08.807Z,60.40
2019-03-28T19:52:37.932Z,60.70
2019-03-28T19:55:07.632Z,60.70
2019-03-28T19:57:36.588Z,61.30
2019-03-28T20:00:07.623Z,61.80
2019-03-28T20:02:36.763Z,61.80
2019-03-28T20:05:07.168Z,62.20
2019-03-28T20:07:36.134Z,63.50
2019-03-28T20:10:16.150Z,63.00
2019-03-28T20:12:36.888Z,63.60
2019-03-28T20:15:09.543Z,63.60
2019-03-28T20:17:38.600Z,63.40
2019-03-28T20:20:08.393Z,64.10
2019-03-28T20:22:40.517Z,64.50
2019-03-28T20:25:09.783Z,64.40
2019-03-28T20:27:38.887Z,64.70
2019-03-28T20:30:08.586Z,64.70
2019-03-28T20:36:35.654Z,65.70
2019-03-28T20:38:44.676Z,65.80
2019-03-28T20:41:14.011Z,66.10
2019-03-28T20:43:43.238Z,66.20
2019-03-28T20:46:12.253Z,66.60
2019-03-28T20:48:41.215Z,67.20
2019-03-28T20:51:10.398Z,68.00
2019-03-28T20:53:39.457Z,67.80
2019-03-28T20:56:08.658Z,68.30
2019-03-28T20:58:37.641Z,69.10
2019-03-28T21:01:06.721Z,68.50
2019-03-28T21:03:36.008Z,68.70
2019-03-28T21:06:15.031Z,69.00
2019-03-28T21:08:35.946Z,69.20
2019-03-28T21:11:05.117Z,69.80
2019-03-28T21:13:35.350Z,69.70
2019-03-28T21:16:05.280Z,69.70
2019-03-28T21:18:34.255Z,69.80
2019-03-28T21:21:03.462Z,69.80
2019-03-28T21:23:32.521Z,70.50
2019-03-28T21:26:01.919Z,70.60
2019-03-28T21:28:31.033Z,70.60
2019-03-28T21:30:59.992Z,70.80
2019-03-28T21:33:29.078Z,70.70
2019-03-28T21:35:58.106Z,71.20
2019-03-28T21:38:27.277Z,71.30
2019-03-28T21:40:59.391Z,71.40
2019-03-28T21:43:26.917Z,71.30
2019-03-28T21:45:55.973Z,71.80
2019-03-28T21:48:25.282Z,71.80
2019-03-28T21:50:54.442Z,71.90
2019-03-28T21:53:23.410Z,72.00
2019-03-28T21:55:55.480Z,72.10
2019-03-28T21:58:23.208Z,72.20
2019-03-28T22:00:52.595Z,72.30
2019-03-28T22:03:21.615Z,72.30
2019-03-28T22:05:51.259Z,72.40
2019-03-28T22:08:20.335Z,72.40
2019-03-28T22:10:49.472Z,72.60
2019-03-28T22:13:18.585Z,72.60
2019-03-28T22:15:48.019Z,72.30
2019-03-28T22:18:17.077Z,72.60
2019-03-28T22:20:46.130Z,72.70
2019-03-28T22:23:15.175Z,72.40
2019-03-28T22:25:44.247Z,72.80
2019-03-28T22:28:13.401Z,73.90
2019-03-28T22:30:42.377Z,74.60
2019-03-28T22:33:11.335Z,74.00
2019-03-28T22:35:40.380Z,74.30
2019-03-28T22:38:09.309Z,74.40
2019-03-28T22:40:38.413Z,74.60
2019-03-28T22:43:07.481Z,75.40
2019-03-28T22:45:36.493Z,75.50
2019-03-28T22:48:11.212Z,76.00
2019-03-28T22:50:36.312Z,76.20
2019-03-28T22:53:05.613Z,76.20
2019-03-28T22:55:34.724Z,76.40
2019-03-28T22:58:04.005Z,76.70
2019-03-28T23:00:44.772Z,77.10
2019-03-28T23:03:15.112Z,77.20
2019-03-28T23:05:44.420Z,77.60
2019-03-28T23:08:13.596Z,77.80
2019-03-28T23:10:42.848Z,77.80
2019-03-28T23:13:11.951Z,77.90
2019-03-28T23:15:41.248Z,77.90
2019-03-28T23:18:10.751Z,78.70
2019-03-28T23:20:39.770Z,78.90
2019-03-28T23:23:08.804Z,78.80
2019-03-28T23:25:37.821Z,79.30
2019-03-28T23:28:06.875Z,79.50
2019-03-28T23:30:35.901Z,79.90
2019-03-28T23:33:05.274Z,80.10
2019-03-28T23:35:34.490Z,79.90
2019-03-28T23:38:03.479Z,80.00
2019-03-28T23:40:32.552Z,80.10
2019-03-28T23:43:01.970Z,80.50
2019-03-28T23:45:30.921Z,80.80
2019-03-28T23:48:00.549Z,80.90
2019-03-28T23:50:29.812Z,81.10
2019-03-28T23:52:58.929Z,81.10
2019-03-28T23:55:28.091Z,81.10
2019-03-28T23:57:58.028Z,81.40
